N770XJ EHAM-EDDF
Flight info
| Callsign | N770XJ |
|---|---|
| Flight time | 0h 46m |
| Altitude | 35000 |
| Route | EDUPO Z739 MISGO DCT DIXAT DIXAT1A |
| Aircraft | C750/M-SBDE3FGHRWXY/S |
Departure
| Time | 2026-05-05 18:55 |
|---|---|
| Airport | Amsterdam Airport Schiphol (EHAM) |
Arrival
| Time | 2026-05-05 19:41 |
|---|---|
| Airport | Frankfurt Main Airport (EDDF) |
| Time | Latitude | Longitude | Altitude | Speed | Heading |
|---|---|---|---|---|---|
| 2026-05-05 17:57 | 52.31112 | 4.80549 | -7 ft | 0 kts | 311° |
| 2026-05-05 18:35 | 52.31113 | 4.80548 | -7 ft | 1 kts | 311° |
| 2026-05-05 18:35 | 52.31119 | 4.80543 | -7 ft | 1 kts | 343° |
| 2026-05-05 18:35 | 52.31123 | 4.80549 | -7 ft | 1 kts | 44° |
| 2026-05-05 18:35 | 52.31123 | 4.80556 | -7 ft | 1 kts | 77° |
| 2026-05-05 18:36 | 52.31123 | 4.80561 | -7 ft | 1 kts | 91° |
| 2026-05-05 18:36 | 52.31122 | 4.80559 | -7 ft | 0 kts | 110° |
| 2026-05-05 18:36 | 52.31126 | 4.80546 | -8 ft | 0 kts | 128° |
| 2026-05-05 18:36 | 52.31111 | 4.80556 | -7 ft | 6 kts | 153° |
| 2026-05-05 18:37 | 52.31081 | 4.80623 | -7 ft | 6 kts | 92° |
| 2026-05-05 18:37 | 52.31110 | 4.80681 | -8 ft | 6 kts | 40° |
| 2026-05-05 18:37 | 52.31130 | 4.80711 | -8 ft | 4 kts | 44° |
| 2026-05-05 18:37 | 52.31133 | 4.80715 | -8 ft | 0 kts | 43° |
| 2026-05-05 18:46 | 52.31136 | 4.80719 | -8 ft | 2 kts | 43° |
| 2026-05-05 18:46 | 52.31163 | 4.80762 | -8 ft | 9 kts | 43° |
| 2026-05-05 18:46 | 52.31201 | 4.80818 | -8 ft | 0 kts | 35° |
| 2026-05-05 18:47 | 52.31174 | 4.80788 | -8 ft | 9 kts | 43° |
| 2026-05-05 18:47 | 52.31137 | 4.80725 | -8 ft | 0 kts | 46° |
| 2026-05-05 18:47 | 52.31153 | 4.80717 | -7 ft | 5 kts | 323° |
| 2026-05-05 18:47 | 52.31196 | 4.80636 | -9 ft | 14 kts | 309° |
| 2026-05-05 18:48 | 52.31252 | 4.80482 | -8 ft | 17 kts | 268° |
| 2026-05-05 18:48 | 52.31172 | 4.80321 | -8 ft | 21 kts | 221° |
| 2026-05-05 18:48 | 52.31045 | 4.80142 | -9 ft | 27 kts | 220° |
| 2026-05-05 18:48 | 52.30935 | 4.79982 | -11 ft | 17 kts | 220° |
| 2026-05-05 18:49 | 52.30845 | 4.79851 | -11 ft | 18 kts | 221° |
| 2026-05-05 18:49 | 52.30800 | 4.79786 | -10 ft | 2 kts | 221° |
| 2026-05-05 18:49 | 52.30787 | 4.79766 | -10 ft | 4 kts | 221° |
| 2026-05-05 18:49 | 52.30763 | 4.79732 | -9 ft | 6 kts | 221° |
| 2026-05-05 18:50 | 52.30720 | 4.79671 | -8 ft | 11 kts | 221° |
| 2026-05-05 18:50 | 52.30649 | 4.79579 | -8 ft | 15 kts | 223° |
| 2026-05-05 18:50 | 52.30569 | 4.79455 | -6 ft | 18 kts | 221° |
| 2026-05-05 18:50 | 52.30462 | 4.79305 | -9 ft | 23 kts | 222° |
| 2026-05-05 18:51 | 52.30340 | 4.79126 | -11 ft | 16 kts | 221° |
| 2026-05-05 18:51 | 52.30261 | 4.79013 | -10 ft | 17 kts | 220° |
| 2026-05-05 18:51 | 52.30164 | 4.78878 | -10 ft | 17 kts | 221° |
| 2026-05-05 18:51 | 52.30142 | 4.78846 | -9 ft | 0 kts | 221° |
| 2026-05-05 18:52 | 52.30142 | 4.78845 | -9 ft | 1 kts | 221° |
| 2026-05-05 18:52 | 52.30129 | 4.78828 | -8 ft | 4 kts | 221° |
| 2026-05-05 18:52 | 52.30099 | 4.78785 | -7 ft | 8 kts | 221° |
| 2026-05-05 18:52 | 52.30068 | 4.78741 | -7 ft | 8 kts | 221° |
| 2026-05-05 18:53 | 52.30033 | 4.78634 | -7 ft | 13 kts | 284° |
| 2026-05-05 18:53 | 52.30085 | 4.78536 | -7 ft | 8 kts | 314° |
| 2026-05-05 18:53 | 52.30134 | 4.78489 | -9 ft | 0 kts | 44° |
| 2026-05-05 18:53 | 52.30136 | 4.78491 | -9 ft | 0 kts | 43° |
| 2026-05-05 18:54 | 52.30309 | 4.78738 | -13 ft | 90 kts | 40° |
| 2026-05-05 18:54 | 52.30973 | 4.79687 | 2 ft | 152 kts | 40° |
| 2026-05-05 18:54 | 52.31836 | 4.80919 | 567 ft | 165 kts | 40° |
| 2026-05-05 18:55 | 52.32661 | 4.81971 | 1855 ft | 136 kts | 37° |
| 2026-05-05 18:55 | 52.33334 | 4.82969 | 2756 ft | 135 kts | 43° |
| 2026-05-05 18:55 | 52.34047 | 4.84079 | 2999 ft | 146 kts | 40° |
| 2026-05-05 18:55 | 52.34722 | 4.85553 | 2924 ft | 187 kts | 71° |
| 2026-05-05 18:56 | 52.34711 | 4.87865 | 3048 ft | 218 kts | 92° |
| 2026-05-05 18:56 | 52.34400 | 4.90311 | 4034 ft | 221 kts | 106° |
| 2026-05-05 18:56 | 52.33517 | 4.92451 | 4978 ft | 234 kts | 126° |
| 2026-05-05 18:56 | 52.32410 | 4.94458 | 5865 ft | 244 kts | 129° |
| 2026-05-05 18:57 | 52.31253 | 4.96702 | 6382 ft | 271 kts | 128° |
| 2026-05-05 18:57 | 52.30036 | 4.99152 | 7240 ft | 279 kts | 128° |
| 2026-05-05 18:57 | 52.28833 | 5.01618 | 8377 ft | 282 kts | 128° |
| 2026-05-05 18:57 | 52.27610 | 5.04166 | 9459 ft | 287 kts | 128° |
| 2026-05-05 18:58 | 52.26371 | 5.06771 | 10266 ft | 296 kts | 128° |
| 2026-05-05 18:58 | 52.25078 | 5.09502 | 10533 ft | 322 kts | 127° |
| 2026-05-05 18:58 | 52.23653 | 5.12521 | 10646 ft | 349 kts | 127° |
| 2026-05-05 18:58 | 52.22150 | 5.15713 | 11288 ft | 355 kts | 127° |
| 2026-05-05 18:59 | 52.20639 | 5.18912 | 12065 ft | 358 kts | 127° |
| 2026-05-05 18:59 | 52.19107 | 5.22153 | 12731 ft | 364 kts | 127° |
| 2026-05-05 18:59 | 52.17527 | 5.25498 | 12902 ft | 383 kts | 127° |
| 2026-05-05 18:59 | 52.16058 | 5.28603 | 12904 ft | 402 kts | 127° |
| 2026-05-05 19:00 | 52.14247 | 5.32403 | 12899 ft | 410 kts | 127° |
| 2026-05-05 19:00 | 52.12480 | 5.36084 | 12902 ft | 414 kts | 127° |
| 2026-05-05 19:00 | 52.10699 | 5.39772 | 12904 ft | 416 kts | 128° |
| 2026-05-05 19:00 | 52.08911 | 5.43460 | 12901 ft | 415 kts | 127° |
| 2026-05-05 19:01 | 52.07123 | 5.47109 | 12902 ft | 416 kts | 127° |
| 2026-05-05 19:01 | 52.05335 | 5.50741 | 12894 ft | 416 kts | 128° |
| 2026-05-05 19:01 | 52.03529 | 5.54413 | 12892 ft | 416 kts | 128° |
| 2026-05-05 19:01 | 52.01725 | 5.58089 | 12896 ft | 416 kts | 128° |
| 2026-05-05 19:02 | 51.99923 | 5.61773 | 12911 ft | 417 kts | 127° |
| 2026-05-05 19:02 | 51.98114 | 5.65450 | 13349 ft | 417 kts | 128° |
| 2026-05-05 19:02 | 51.96309 | 5.69100 | 14058 ft | 407 kts | 128° |
| 2026-05-05 19:02 | 51.94591 | 5.72540 | 15326 ft | 378 kts | 128° |
| 2026-05-05 19:03 | 51.92970 | 5.75796 | 16202 ft | 370 kts | 128° |
| 2026-05-05 19:03 | 51.91410 | 5.78926 | 17680 ft | 335 kts | 128° |
| 2026-05-05 19:03 | 51.90062 | 5.81632 | 19285 ft | 284 kts | 129° |
| 2026-05-05 19:03 | 51.88878 | 5.84079 | 20415 ft | 276 kts | 129° |
| 2026-05-05 19:04 | 51.87666 | 5.86671 | 20529 ft | 304 kts | 128° |
| 2026-05-05 19:04 | 51.86368 | 5.89512 | 20516 ft | 332 kts | 128° |
| 2026-05-05 19:04 | 51.84946 | 5.92636 | 20527 ft | 357 kts | 128° |
| 2026-05-05 19:04 | 51.83427 | 5.95966 | 20554 ft | 379 kts | 128° |
| 2026-05-05 19:05 | 51.81812 | 5.99457 | 20738 ft | 391 kts | 128° |
| 2026-05-05 19:05 | 51.80268 | 6.02778 | 22718 ft | 346 kts | 128° |
| 2026-05-05 19:05 | 51.78885 | 6.05796 | 24082 ft | 329 kts | 129° |
| 2026-05-05 19:05 | 51.77500 | 6.08726 | 24760 ft | 330 kts | 130° |
| 2026-05-05 19:06 | 51.76045 | 6.11731 | 24849 ft | 351 kts | 130° |
| 2026-05-05 19:06 | 51.74530 | 6.14964 | 24852 ft | 372 kts | 129° |
| 2026-05-05 19:06 | 51.72949 | 6.18393 | 24857 ft | 390 kts | 129° |
| 2026-05-05 19:06 | 51.71277 | 6.21963 | 24881 ft | 407 kts | 129° |
| 2026-05-05 19:07 | 51.69530 | 6.25653 | 24994 ft | 419 kts | 129° |
| 2026-05-05 19:07 | 51.67794 | 6.29349 | 25516 ft | 419 kts | 129° |
| 2026-05-05 19:07 | 51.66028 | 6.33114 | 25963 ft | 422 kts | 129° |
| 2026-05-05 19:07 | 51.64246 | 6.36889 | 26434 ft | 425 kts | 129° |
| 2026-05-05 19:08 | 51.62449 | 6.40683 | 26947 ft | 426 kts | 129° |
| 2026-05-05 19:08 | 51.60654 | 6.44479 | 27460 ft | 428 kts | 129° |
| 2026-05-05 19:08 | 51.58847 | 6.48299 | 27931 ft | 430 kts | 129° |
| 2026-05-05 19:08 | 51.57027 | 6.52131 | 28419 ft | 433 kts | 129° |
| 2026-05-05 19:09 | 51.55196 | 6.55982 | 28902 ft | 435 kts | 129° |
| 2026-05-05 19:09 | 51.53352 | 6.59857 | 29380 ft | 437 kts | 129° |
| 2026-05-05 19:09 | 51.51411 | 6.63612 | 29736 ft | 439 kts | 137° |
| 2026-05-05 19:09 | 51.49117 | 6.66866 | 30166 ft | 440 kts | 140° |
| 2026-05-05 19:10 | 51.46864 | 6.70191 | 30594 ft | 441 kts | 137° |
| 2026-05-05 19:10 | 51.44666 | 6.73640 | 30841 ft | 447 kts | 137° |
| 2026-05-05 19:10 | 51.40056 | 6.80544 | 30858 ft | 466 kts | 139° |
| 2026-05-05 19:11 | 51.35237 | 6.87748 | 30861 ft | 481 kts | 137° |
| 2026-05-05 19:11 | 51.30301 | 6.95130 | 30839 ft | 489 kts | 138° |
| 2026-05-05 19:12 | 51.25308 | 7.02539 | 30840 ft | 491 kts | 138° |
| 2026-05-05 19:12 | 51.20433 | 7.09793 | 30061 ft | 463 kts | 138° |
| 2026-05-05 19:13 | 51.18096 | 7.13245 | 29238 ft | 441 kts | 138° |
| 2026-05-05 19:13 | 51.15904 | 7.16477 | 28497 ft | 429 kts | 138° |
| 2026-05-05 19:13 | 51.13725 | 7.19690 | 27752 ft | 425 kts | 138° |
| 2026-05-05 19:13 | 51.11567 | 7.22870 | 27020 ft | 421 kts | 138° |
| 2026-05-05 19:14 | 51.09421 | 7.26029 | 26282 ft | 419 kts | 137° |
| 2026-05-05 19:14 | 51.07275 | 7.29186 | 25831 ft | 426 kts | 138° |
| 2026-05-05 19:14 | 51.04974 | 7.32238 | 25823 ft | 437 kts | 144° |
| 2026-05-05 19:14 | 51.02383 | 7.34701 | 25825 ft | 420 kts | 152° |
| 2026-05-05 19:15 | 50.99805 | 7.36791 | 25827 ft | 417 kts | 153° |
| 2026-05-05 19:15 | 50.97234 | 7.38903 | 25804 ft | 417 kts | 152° |
| 2026-05-05 19:15 | 50.94657 | 7.41020 | 25224 ft | 414 kts | 152° |
| 2026-05-05 19:15 | 50.92145 | 7.43100 | 24616 ft | 398 kts | 152° |
| 2026-05-05 19:16 | 50.89763 | 7.45062 | 24014 ft | 384 kts | 152° |
| 2026-05-05 19:16 | 50.87404 | 7.46991 | 23416 ft | 379 kts | 153° |
| 2026-05-05 19:16 | 50.85106 | 7.48872 | 22731 ft | 376 kts | 153° |
| 2026-05-05 19:16 | 50.82793 | 7.50763 | 22050 ft | 372 kts | 153° |
| 2026-05-05 19:17 | 50.80503 | 7.52629 | 21394 ft | 369 kts | 153° |
| 2026-05-05 19:17 | 50.78228 | 7.54481 | 20681 ft | 366 kts | 153° |
| 2026-05-05 19:17 | 50.75973 | 7.56318 | 19936 ft | 363 kts | 153° |
| 2026-05-05 19:17 | 50.73737 | 7.58135 | 19209 ft | 359 kts | 153° |
| 2026-05-05 19:18 | 50.71527 | 7.59929 | 18498 ft | 356 kts | 153° |
| 2026-05-05 19:18 | 50.69330 | 7.61713 | 17751 ft | 354 kts | 153° |
| 2026-05-05 19:18 | 50.67157 | 7.63475 | 17117 ft | 347 kts | 153° |
| 2026-05-05 19:18 | 50.65009 | 7.65212 | 16723 ft | 348 kts | 153° |
| 2026-05-05 19:19 | 50.62861 | 7.66947 | 16236 ft | 346 kts | 153° |
| 2026-05-05 19:19 | 50.60711 | 7.68684 | 15957 ft | 349 kts | 154° |
| 2026-05-05 19:19 | 50.58565 | 7.70422 | 15569 ft | 347 kts | 154° |
| 2026-05-05 19:19 | 50.56421 | 7.72146 | 15174 ft | 345 kts | 154° |
| 2026-05-05 19:20 | 50.54317 | 7.73833 | 14788 ft | 343 kts | 154° |
| 2026-05-05 19:20 | 50.52197 | 7.75541 | 14396 ft | 342 kts | 154° |
| 2026-05-05 19:20 | 50.50089 | 7.77240 | 14010 ft | 340 kts | 154° |
| 2026-05-05 19:20 | 50.47986 | 7.78927 | 13617 ft | 338 kts | 154° |
| 2026-05-05 19:21 | 50.45898 | 7.80598 | 13219 ft | 336 kts | 154° |
| 2026-05-05 19:21 | 50.43835 | 7.82271 | 12840 ft | 333 kts | 153° |
| 2026-05-05 19:21 | 50.42022 | 7.84319 | 12814 ft | 335 kts | 143° |
| 2026-05-05 19:21 | 50.40230 | 7.86593 | 12618 ft | 324 kts | 142° |
| 2026-05-05 19:22 | 50.38449 | 7.88825 | 11862 ft | 329 kts | 143° |
| 2026-05-05 19:22 | 50.36649 | 7.91029 | 11815 ft | 332 kts | 144° |
| 2026-05-05 19:22 | 50.34830 | 7.93266 | 11818 ft | 333 kts | 144° |
| 2026-05-05 19:22 | 50.33014 | 7.95526 | 11826 ft | 334 kts | 144° |
| 2026-05-05 19:23 | 50.31215 | 7.97760 | 11826 ft | 335 kts | 144° |
| 2026-05-05 19:23 | 50.29387 | 8.00015 | 11829 ft | 335 kts | 144° |
| 2026-05-05 19:23 | 50.27555 | 8.02273 | 11830 ft | 335 kts | 144° |
| 2026-05-05 19:23 | 50.25932 | 8.04797 | 11768 ft | 336 kts | 126° |
| 2026-05-05 19:24 | 50.25067 | 8.08005 | 11797 ft | 311 kts | 106° |
| 2026-05-05 19:24 | 50.24828 | 8.11333 | 11757 ft | 311 kts | 95° |
| 2026-05-05 19:24 | 50.24717 | 8.14710 | 11829 ft | 312 kts | 95° |
| 2026-05-05 19:24 | 50.24590 | 8.18071 | 11794 ft | 305 kts | 95° |
| 2026-05-05 19:25 | 50.24445 | 8.21424 | 11833 ft | 310 kts | 96° |
| 2026-05-05 19:25 | 50.24303 | 8.24797 | 11835 ft | 311 kts | 95° |
| 2026-05-05 19:25 | 50.24171 | 8.28120 | 11818 ft | 308 kts | 95° |
| 2026-05-05 19:25 | 50.24037 | 8.31476 | 11379 ft | 316 kts | 95° |
| 2026-05-05 19:26 | 50.23893 | 8.34856 | 11304 ft | 314 kts | 96° |
| 2026-05-05 19:26 | 50.23752 | 8.38167 | 10871 ft | 302 kts | 96° |
| 2026-05-05 19:26 | 50.23609 | 8.41532 | 10075 ft | 314 kts | 96° |
| 2026-05-05 19:26 | 50.23475 | 8.44853 | 9818 ft | 294 kts | 95° |
| 2026-05-05 19:27 | 50.23350 | 8.47904 | 9802 ft | 271 kts | 96° |
| 2026-05-05 19:27 | 50.23242 | 8.50819 | 9797 ft | 270 kts | 95° |
| 2026-05-05 19:27 | 50.23136 | 8.53709 | 9795 ft | 267 kts | 95° |
| 2026-05-05 19:27 | 50.23030 | 8.56595 | 9705 ft | 260 kts | 95° |
| 2026-05-05 19:28 | 50.22932 | 8.59386 | 8855 ft | 263 kts | 95° |
| 2026-05-05 19:28 | 50.22829 | 8.62229 | 8160 ft | 260 kts | 95° |
| 2026-05-05 19:28 | 50.22725 | 8.65026 | 7499 ft | 257 kts | 95° |
| 2026-05-05 19:28 | 50.22622 | 8.67842 | 6871 ft | 260 kts | 95° |
| 2026-05-05 19:29 | 50.22520 | 8.70576 | 6806 ft | 252 kts | 95° |
| 2026-05-05 19:29 | 50.22414 | 8.73302 | 6816 ft | 253 kts | 96° |
| 2026-05-05 19:29 | 50.22306 | 8.76045 | 6820 ft | 253 kts | 96° |
| 2026-05-05 19:29 | 50.22198 | 8.78796 | 6818 ft | 254 kts | 96° |
| 2026-05-05 19:30 | 50.22090 | 8.81542 | 6816 ft | 255 kts | 96° |
| 2026-05-05 19:30 | 50.21981 | 8.84298 | 6819 ft | 255 kts | 96° |
| 2026-05-05 19:30 | 50.21874 | 8.87051 | 6813 ft | 255 kts | 96° |
| 2026-05-05 19:30 | 50.21767 | 8.89810 | 6814 ft | 254 kts | 95° |
| 2026-05-05 19:31 | 50.21669 | 8.92504 | 6366 ft | 249 kts | 95° |
| 2026-05-05 19:31 | 50.21563 | 8.95239 | 5984 ft | 245 kts | 95° |
| 2026-05-05 19:31 | 50.21456 | 8.97915 | 5995 ft | 248 kts | 96° |
| 2026-05-05 19:31 | 50.21347 | 9.00617 | 6003 ft | 251 kts | 96° |
| 2026-05-05 19:32 | 50.21179 | 9.03280 | 5961 ft | 250 kts | 106° |
| 2026-05-05 19:32 | 50.20232 | 9.05452 | 5917 ft | 239 kts | 147° |
| 2026-05-05 19:32 | 50.18796 | 9.06061 | 5901 ft | 210 kts | 189° |
| 2026-05-05 19:32 | 50.17449 | 9.05251 | 5996 ft | 208 kts | 212° |
| 2026-05-05 19:33 | 50.16348 | 9.03817 | 6019 ft | 207 kts | 224° |
| 2026-05-05 19:33 | 50.15318 | 9.02256 | 6014 ft | 206 kts | 225° |
| 2026-05-05 19:33 | 50.14334 | 9.00647 | 5972 ft | 207 kts | 236° |
| 2026-05-05 19:33 | 50.13781 | 8.98595 | 6004 ft | 206 kts | 248° |
| 2026-05-05 19:34 | 50.13167 | 8.96584 | 6008 ft | 206 kts | 242° |
| 2026-05-05 19:34 | 50.12519 | 8.94618 | 5976 ft | 198 kts | 244° |
| 2026-05-05 19:34 | 50.12035 | 8.92703 | 5801 ft | 183 kts | 248° |
| 2026-05-05 19:35 | 50.11129 | 8.89135 | 5218 ft | 173 kts | 249° |
| 2026-05-05 19:35 | 50.10732 | 8.87374 | 4934 ft | 172 kts | 250° |
| 2026-05-05 19:35 | 50.10340 | 8.85611 | 4554 ft | 172 kts | 249° |
| 2026-05-05 19:35 | 50.09940 | 8.83888 | 4204 ft | 163 kts | 250° |
| 2026-05-05 19:36 | 50.09569 | 8.82225 | 3825 ft | 166 kts | 250° |
| 2026-05-05 19:36 | 50.09240 | 8.80505 | 3452 ft | 167 kts | 254° |
| 2026-05-05 19:36 | 50.08858 | 8.78794 | 3063 ft | 167 kts | 249° |
| 2026-05-05 19:36 | 50.08437 | 8.77114 | 2813 ft | 168 kts | 248° |
| 2026-05-05 19:37 | 50.07987 | 8.75444 | 2588 ft | 166 kts | 247° |
| 2026-05-05 19:37 | 50.07595 | 8.73941 | 2387 ft | 135 kts | 248° |
| 2026-05-05 19:37 | 50.07236 | 8.72666 | 2086 ft | 126 kts | 245° |
| 2026-05-05 19:37 | 50.06977 | 8.71411 | 1898 ft | 120 kts | 254° |
| 2026-05-05 19:38 | 50.06736 | 8.70164 | 1780 ft | 120 kts | 252° |
| 2026-05-05 19:38 | 50.06441 | 8.68931 | 1700 ft | 123 kts | 248° |
| 2026-05-05 19:38 | 50.06173 | 8.67694 | 1581 ft | 120 kts | 250° |
| 2026-05-05 19:38 | 50.05882 | 8.66497 | 1459 ft | 121 kts | 249° |
| 2026-05-05 19:39 | 50.05579 | 8.65273 | 1277 ft | 121 kts | 248° |
| 2026-05-05 19:39 | 50.05276 | 8.64026 | 1106 ft | 124 kts | 249° |
| 2026-05-05 19:39 | 50.04984 | 8.62768 | 964 ft | 124 kts | 249° |
| 2026-05-05 19:39 | 50.04679 | 8.61508 | 824 ft | 124 kts | 248° |
| 2026-05-05 19:40 | 50.04381 | 8.60241 | 659 ft | 126 kts | 249° |
| 2026-05-05 19:40 | 50.04085 | 8.58987 | 484 ft | 123 kts | 249° |
| 2026-05-05 19:40 | 50.03797 | 8.57777 | 366 ft | 114 kts | 248° |
| 2026-05-05 19:40 | 50.03545 | 8.56727 | 350 ft | 90 kts | 250° |
| 2026-05-05 19:41 | 50.03371 | 8.56000 | 347 ft | 52 kts | 249° |
| 2026-05-05 19:41 | 50.03251 | 8.55614 | 339 ft | 32 kts | 230° |
| 2026-05-05 19:41 | 50.03125 | 8.55438 | 337 ft | 15 kts | 219° |
| 2026-05-05 19:41 | 50.03115 | 8.55426 | 339 ft | 0 kts | 219° |
| 2026-05-05 19:42 | 50.03108 | 8.55417 | 339 ft | 4 kts | 219° |
| 2026-05-05 19:42 | 50.03069 | 8.55366 | 337 ft | 11 kts | 220° |
| 2026-05-05 19:43 | 50.03002 | 8.55282 | 336 ft | 12 kts | 216° |
| 2026-05-05 19:43 | 50.02939 | 8.55297 | 340 ft | 10 kts | 109° |
| 2026-05-05 19:43 | 50.02957 | 8.55375 | 338 ft | 0 kts | 68° |
| 2026-05-05 19:43 | 50.02957 | 8.55377 | 338 ft | 0 kts | 84° |
| 2026-05-05 19:44 | 50.02950 | 8.55391 | 340 ft | 7 kts | 138° |
| 2026-05-05 19:44 | 50.02929 | 8.55264 | 340 ft | 10 kts | 251° |
| 2026-05-05 19:44 | 50.02911 | 8.55191 | 338 ft | 14 kts | 249° |
| 2026-05-05 19:44 | 50.02864 | 8.54998 | 337 ft | 16 kts | 250° |
| 2026-05-05 19:45 | 50.02843 | 8.54911 | 335 ft | 1 kts | 250° |
| 2026-05-05 19:45 | 50.02834 | 8.54871 | 336 ft | 9 kts | 244° |
| 2026-05-05 19:46 | 50.02790 | 8.54728 | 337 ft | 20 kts | 247° |
| 2026-05-05 19:46 | 50.02737 | 8.54516 | 337 ft | 18 kts | 249° |
| 2026-05-05 19:46 | 50.02689 | 8.54310 | 336 ft | 26 kts | 251° |
| 2026-05-05 19:46 | 50.02627 | 8.54030 | 331 ft | 21 kts | 244° |
| 2026-05-05 19:47 | 50.02565 | 8.53777 | 330 ft | 27 kts | 252° |
| 2026-05-05 19:47 | 50.02513 | 8.53559 | 333 ft | 21 kts | 250° |
| 2026-05-05 19:47 | 50.02454 | 8.53306 | 330 ft | 27 kts | 250° |
| 2026-05-05 19:47 | 50.02393 | 8.53052 | 330 ft | 13 kts | 248° |
| 2026-05-05 19:48 | 50.02388 | 8.53032 | 331 ft | 0 kts | 247° |
| 2026-05-05 19:50 | 50.02383 | 8.53012 | 329 ft | 7 kts | 247° |
| 2026-05-05 19:50 | 50.02339 | 8.52884 | 330 ft | 20 kts | 227° |
| 2026-05-05 19:50 | 50.02185 | 8.52831 | 331 ft | 20 kts | 175° |
| 2026-05-05 19:50 | 50.02149 | 8.52970 | 332 ft | 17 kts | 86° |
| 2026-05-05 19:51 | 50.02172 | 8.53080 | 331 ft | 7 kts | 27° |
| 2026-05-05 19:51 | 50.02199 | 8.53103 | 330 ft | 1 kts | 46° |
| 2026-05-05 19:51 | 50.02206 | 8.53114 | 331 ft | 0 kts | 45° |
| 2026-05-05 19:51 | 50.02207 | 8.53114 | 331 ft | 0 kts | 40° |
| 2026-05-05 19:52 | 50.02213 | 8.53112 | 330 ft | 1 kts | 339° |
| 2026-05-05 19:52 | 50.02220 | 8.53098 | 332 ft | 2 kts | 309° |
| 2026-05-05 19:52 | 50.02235 | 8.53087 | 331 ft | 2 kts | 343° |
| 2026-05-05 19:52 | 50.02241 | 8.53084 | 332 ft | 1 kts | 341° |
| 2026-05-05 19:53 | 50.02246 | 8.53081 | 332 ft | 0 kts | 340° |